sensor_id;sensor_type;location;lat;lon;timestamp;P1;durP1;ratioP1;P2;durP2;ratioP2
36725;SDS011;44936;52.086;5.150;2024-03-06T00:01:41;18.58;;;5.88;;
36725;SDS011;44936;52.086;5.150;2024-03-06T00:04:07;15.45;;;5.43;;
36725;SDS011;44936;52.086;5.150;2024-03-06T00:06:32;12.98;;;5.03;;
36725;SDS011;44936;52.086;5.150;2024-03-06T00:08:58;14.02;;;5.43;;
36725;SDS011;44936;52.086;5.150;2024-03-06T00:11:23;14.27;;;6.20;;
36725;SDS011;44936;52.086;5.150;2024-03-06T00:13:48;15.52;;;5.38;;
36725;SDS011;44936;52.086;5.150;2024-03-06T00:16:14;16.70;;;6.15;;
36725;SDS011;44936;52.086;5.150;2024-03-06T00:18:39;14.35;;;6.30;;
36725;SDS011;44936;52.086;5.150;2024-03-06T00:21:05;11.20;;;5.45;;
36725;SDS011;44936;52.086;5.150;2024-03-06T00:23:31;15.52;;;6.28;;
36725;SDS011;44936;52.086;5.150;2024-03-06T00:25:57;12.77;;;5.43;;
36725;SDS011;44936;52.086;5.150;2024-03-06T00:28:22;16.10;;;6.50;;
36725;SDS011;44936;52.086;5.150;2024-03-06T00:30:47;14.25;;;5.57;;
36725;SDS011;44936;52.086;5.150;2024-03-06T00:33:13;13.68;;;5.90;;
36725;SDS011;44936;52.086;5.150;2024-03-06T00:35:38;15.68;;;6.07;;
36725;SDS011;44936;52.086;5.150;2024-03-06T00:38:03;17.67;;;6.40;;
36725;SDS011;44936;52.086;5.150;2024-03-06T00:40:29;14.73;;;5.97;;
36725;SDS011;44936;52.086;5.150;2024-03-06T00:42:57;13.65;;;5.97;;
36725;SDS011;44936;52.086;5.150;2024-03-06T00:45:23;14.77;;;6.28;;
36725;SDS011;44936;52.086;5.150;2024-03-06T00:47:48;18.40;;;5.60;;
36725;SDS011;44936;52.086;5.150;2024-03-06T00:50:14;12.18;;;5.55;;
36725;SDS011;44936;52.086;5.150;2024-03-06T00:52:41;15.63;;;5.43;;
36725;SDS011;44936;52.086;5.150;2024-03-06T00:55:07;17.02;;;6.05;;
36725;SDS011;44936;52.086;5.150;2024-03-06T00:57:33;16.63;;;6.07;;
36725;SDS011;44936;52.086;5.150;2024-03-06T00:59:58;13.55;;;5.90;;
36725;SDS011;44936;52.086;5.150;2024-03-06T01:02:24;13.70;;;5.63;;
36725;SDS011;44936;52.086;5.150;2024-03-06T01:04:49;15.48;;;5.55;;
36725;SDS011;44936;52.086;5.150;2024-03-06T01:07:14;19.08;;;6.97;;
36725;SDS011;44936;52.086;5.150;2024-03-06T01:09:40;13.45;;;6.47;;
36725;SDS011;44936;52.086;5.150;2024-03-06T01:12:05;15.02;;;5.55;;
36725;SDS011;44936;52.086;5.150;2024-03-06T01:14:30;13.25;;;5.55;;
36725;SDS011;44936;52.086;5.150;2024-03-06T01:16:56;11.85;;;5.57;;
36725;SDS011;44936;52.086;5.150;2024-03-06T01:19:21;15.98;;;5.82;;
36725;SDS011;44936;52.086;5.150;2024-03-06T01:21:46;15.77;;;4.95;;
36725;SDS011;44936;52.086;5.150;2024-03-06T01:24:13;14.70;;;6.53;;
36725;SDS011;44936;52.086;5.150;2024-03-06T01:26:39;14.27;;;5.90;;
36725;SDS011;44936;52.086;5.150;2024-03-06T01:29:05;16.65;;;6.10;;
36725;SDS011;44936;52.086;5.150;2024-03-06T01:31:30;17.58;;;5.95;;
36725;SDS011;44936;52.086;5.150;2024-03-06T01:33:56;14.40;;;6.45;;
36725;SDS011;44936;52.086;5.150;2024-03-06T01:36:21;14.98;;;5.70;;
36725;SDS011;44936;52.086;5.150;2024-03-06T01:38:46;13.43;;;5.32;;
36725;SDS011;44936;52.086;5.150;2024-03-06T01:41:12;13.73;;;5.72;;
36725;SDS011;44936;52.086;5.150;2024-03-06T01:43:37;12.35;;;5.90;;
36725;SDS011;44936;52.086;5.150;2024-03-06T01:46:04;16.52;;;6.32;;
36725;SDS011;44936;52.086;5.150;2024-03-06T01:48:30;16.08;;;5.72;;
36725;SDS011;44936;52.086;5.150;2024-03-06T01:50:56;14.65;;;4.95;;
36725;SDS011;44936;52.086;5.150;2024-03-06T01:53:24;16.02;;;5.57;;
36725;SDS011;44936;52.086;5.150;2024-03-06T01:55:50;13.65;;;5.32;;
36725;SDS011;44936;52.086;5.150;2024-03-06T01:58:15;15.20;;;6.18;;
36725;SDS011;44936;52.086;5.150;2024-03-06T02:00:42;15.65;;;6.03;;
36725;SDS011;44936;52.086;5.150;2024-03-06T02:03:08;17.50;;;5.88;;
36725;SDS011;44936;52.086;5.150;2024-03-06T02:05:33;12.73;;;6.28;;
36725;SDS011;44936;52.086;5.150;2024-03-06T02:07:59;15.98;;;5.95;;
36725;SDS011;44936;52.086;5.150;2024-03-06T02:10:25;14.18;;;5.43;;
36725;SDS011;44936;52.086;5.150;2024-03-06T02:12:52;19.55;;;6.50;;
36725;SDS011;44936;52.086;5.150;2024-03-06T02:15:18;16.08;;;6.10;;
36725;SDS011;44936;52.086;5.150;2024-03-06T02:17:43;17.70;;;6.15;;
36725;SDS011;44936;52.086;5.150;2024-03-06T02:20:09;15.27;;;6.13;;
36725;SDS011;44936;52.086;5.150;2024-03-06T02:22:37;16.58;;;6.30;;
36725;SDS011;44936;52.086;5.150;2024-03-06T02:25:03;16.35;;;6.07;;
36725;SDS011;44936;52.086;5.150;2024-03-06T02:27:29;18.08;;;6.88;;
36725;SDS011;44936;52.086;5.150;2024-03-06T02:29:55;16.83;;;6.32;;
36725;SDS011;44936;52.086;5.150;2024-03-06T02:32:20;14.18;;;5.70;;
36725;SDS011;44936;52.086;5.150;2024-03-06T02:34:46;16.75;;;6.50;;
36725;SDS011;44936;52.086;5.150;2024-03-06T02:37:13;14.80;;;5.72;;
36725;SDS011;44936;52.086;5.150;2024-03-06T02:39:38;15.57;;;6.00;;
36725;SDS011;44936;52.086;5.150;2024-03-06T02:42:04;21.63;;;5.70;;
36725;SDS011;44936;52.086;5.150;2024-03-06T02:44:29;15.40;;;5.22;;
36725;SDS011;44936;52.086;5.150;2024-03-06T02:46:54;15.77;;;5.95;;
36725;SDS011;44936;52.086;5.150;2024-03-06T02:49:20;14.23;;;6.38;;
36725;SDS011;44936;52.086;5.150;2024-03-06T02:51:45;15.85;;;7.20;;
36725;SDS011;44936;52.086;5.150;2024-03-06T02:54:11;14.35;;;6.07;;
36725;SDS011;44936;52.086;5.150;2024-03-06T02:56:36;20.13;;;7.10;;
36725;SDS011;44936;52.086;5.150;2024-03-06T02:59:01;15.43;;;6.82;;
36725;SDS011;44936;52.086;5.150;2024-03-06T03:01:28;16.88;;;6.55;;
36725;SDS011;44936;52.086;5.150;2024-03-06T03:03:53;17.77;;;6.28;;
36725;SDS011;44936;52.086;5.150;2024-03-06T03:06:19;15.80;;;6.47;;
36725;SDS011;44936;52.086;5.150;2024-03-06T03:08:44;17.65;;;6.72;;
36725;SDS011;44936;52.086;5.150;2024-03-06T03:11:10;18.00;;;5.97;;
36725;SDS011;44936;52.086;5.150;2024-03-06T03:13:35;16.40;;;6.68;;
36725;SDS011;44936;52.086;5.150;2024-03-06T03:16:00;16.02;;;6.55;;
36725;SDS011;44936;52.086;5.150;2024-03-06T03:18:28;20.23;;;7.15;;
36725;SDS011;44936;52.086;5.150;2024-03-06T03:20:54;17.02;;;6.65;;
36725;SDS011;44936;52.086;5.150;2024-03-06T03:23:19;15.60;;;6.03;;
36725;SDS011;44936;52.086;5.150;2024-03-06T03:25:47;19.00;;;7.53;;
36725;SDS011;44936;52.086;5.150;2024-03-06T03:28:15;19.10;;;7.57;;
36725;SDS011;44936;52.086;5.150;2024-03-06T03:30:42;14.30;;;6.03;;
36725;SDS011;44936;52.086;5.150;2024-03-06T03:33:09;18.27;;;6.35;;
36725;SDS011;44936;52.086;5.150;2024-03-06T03:35:34;17.00;;;6.40;;
36725;SDS011;44936;52.086;5.150;2024-03-06T03:37:59;14.45;;;5.80;;
36725;SDS011;44936;52.086;5.150;2024-03-06T03:40:25;22.00;;;8.27;;
36725;SDS011;44936;52.086;5.150;2024-03-06T03:42:50;18.67;;;7.03;;
36725;SDS011;44936;52.086;5.150;2024-03-06T03:45:15;16.98;;;7.00;;
36725;SDS011;44936;52.086;5.150;2024-03-06T03:47:41;22.00;;;7.93;;
36725;SDS011;44936;52.086;5.150;2024-03-06T03:50:08;16.95;;;6.95;;
36725;SDS011;44936;52.086;5.150;2024-03-06T03:52:33;19.73;;;6.63;;
36725;SDS011;44936;52.086;5.150;2024-03-06T03:54:59;18.20;;;7.18;;
36725;SDS011;44936;52.086;5.150;2024-03-06T03:57:24;18.40;;;7.78;;
36725;SDS011;44936;52.086;5.150;2024-03-06T03:59:49;17.63;;;6.25;;
36725;SDS011;44936;52.086;5.150;2024-03-06T04:02:16;25.10;;;8.57;;
36725;SDS011;44936;52.086;5.150;2024-03-06T04:04:41;15.50;;;6.85;;
36725;SDS011;44936;52.086;5.150;2024-03-06T04:07:07;16.10;;;6.90;;
36725;SDS011;44936;52.086;5.150;2024-03-06T04:09:32;21.50;;;7.88;;
36725;SDS011;44936;52.086;5.150;2024-03-06T04:12:01;17.90;;;7.00;;
36725;SDS011;44936;52.086;5.150;2024-03-06T04:14:26;17.10;;;6.53;;
36725;SDS011;44936;52.086;5.150;2024-03-06T04:16:52;20.95;;;6.85;;
36725;SDS011;44936;52.086;5.150;2024-03-06T04:19:17;18.45;;;7.07;;
36725;SDS011;44936;52.086;5.150;2024-03-06T04:21:43;19.05;;;7.57;;
36725;SDS011;44936;52.086;5.150;2024-03-06T04:24:09;19.38;;;7.32;;
36725;SDS011;44936;52.086;5.150;2024-03-06T04:26:34;19.65;;;8.13;;
36725;SDS011;44936;52.086;5.150;2024-03-06T04:29:00;17.77;;;7.05;;
36725;SDS011;44936;52.086;5.150;2024-03-06T04:31:25;19.67;;;7.18;;
36725;SDS011;44936;52.086;5.150;2024-03-06T04:33:50;20.88;;;7.80;;
36725;SDS011;44936;52.086;5.150;2024-03-06T04:36:16;17.63;;;7.05;;
36725;SDS011;44936;52.086;5.150;2024-03-06T04:38:42;21.48;;;8.30;;
36725;SDS011;44936;52.086;5.150;2024-03-06T04:41:07;22.08;;;8.05;;
36725;SDS011;44936;52.086;5.150;2024-03-06T04:43:33;25.27;;;8.93;;
36725;SDS011;44936;52.086;5.150;2024-03-06T04:45:59;19.30;;;7.72;;
36725;SDS011;44936;52.086;5.150;2024-03-06T04:48:25;20.10;;;7.22;;
36725;SDS011;44936;52.086;5.150;2024-03-06T04:50:51;19.60;;;7.60;;
36725;SDS011;44936;52.086;5.150;2024-03-06T04:53:16;21.77;;;7.55;;
36725;SDS011;44936;52.086;5.150;2024-03-06T04:55:42;19.48;;;7.47;;
36725;SDS011;44936;52.086;5.150;2024-03-06T04:58:07;17.00;;;6.75;;
36725;SDS011;44936;52.086;5.150;2024-03-06T05:00:33;18.75;;;7.80;;
36725;SDS011;44936;52.086;5.150;2024-03-06T05:02:58;19.02;;;8.43;;
36725;SDS011;44936;52.086;5.150;2024-03-06T05:05:24;18.00;;;7.80;;
36725;SDS011;44936;52.086;5.150;2024-03-06T05:07:49;16.80;;;6.57;;
36725;SDS011;44936;52.086;5.150;2024-03-06T05:10:15;24.08;;;8.85;;
36725;SDS011;44936;52.086;5.150;2024-03-06T05:12:41;17.65;;;7.22;;
36725;SDS011;44936;52.086;5.150;2024-03-06T05:15:07;21.15;;;7.40;;
36725;SDS011;44936;52.086;5.150;2024-03-06T05:17:33;23.38;;;8.13;;
36725;SDS011;44936;52.086;5.150;2024-03-06T05:19:58;19.77;;;7.93;;
36725;SDS011;44936;52.086;5.150;2024-03-06T05:22:24;20.10;;;7.75;;
36725;SDS011;44936;52.086;5.150;2024-03-06T05:24:49;21.17;;;7.63;;
36725;SDS011;44936;52.086;5.150;2024-03-06T05:27:15;16.73;;;7.32;;
36725;SDS011;44936;52.086;5.150;2024-03-06T05:29:43;20.50;;;7.63;;
36725;SDS011;44936;52.086;5.150;2024-03-06T05:32:09;15.60;;;5.95;;
36725;SDS011;44936;52.086;5.150;2024-03-06T05:34:35;20.23;;;7.72;;
36725;SDS011;44936;52.086;5.150;2024-03-06T05:37:00;20.90;;;7.70;;
36725;SDS011;44936;52.086;5.150;2024-03-06T05:39:28;19.48;;;7.25;;
36725;SDS011;44936;52.086;5.150;2024-03-06T05:41:55;20.48;;;8.35;;
36725;SDS011;44936;52.086;5.150;2024-03-06T05:44:21;23.10;;;8.07;;
36725;SDS011;44936;52.086;5.150;2024-03-06T05:46:46;22.08;;;7.72;;
36725;SDS011;44936;52.086;5.150;2024-03-06T05:49:12;24.27;;;9.27;;
36725;SDS011;44936;52.086;5.150;2024-03-06T05:51:38;24.85;;;8.50;;
36725;SDS011;44936;52.086;5.150;2024-03-06T05:54:04;25.23;;;8.20;;
36725;SDS011;44936;52.086;5.150;2024-03-06T05:56:31;17.63;;;6.80;;
36725;SDS011;44936;52.086;5.150;2024-03-06T05:58:56;19.30;;;7.35;;
36725;SDS011;44936;52.086;5.150;2024-03-06T06:01:22;18.15;;;7.30;;
36725;SDS011;44936;52.086;5.150;2024-03-06T06:03:47;18.98;;;7.45;;
36725;SDS011;44936;52.086;5.150;2024-03-06T06:06:16;16.05;;;7.45;;
36725;SDS011;44936;52.086;5.150;2024-03-06T06:08:44;17.30;;;6.72;;
36725;SDS011;44936;52.086;5.150;2024-03-06T06:11:10;14.30;;;6.82;;
36725;SDS011;44936;52.086;5.150;2024-03-06T06:13:35;20.83;;;6.88;;
36725;SDS011;44936;52.086;5.150;2024-03-06T06:16:01;18.38;;;6.70;;
36725;SDS011;44936;52.086;5.150;2024-03-06T06:18:27;17.40;;;6.95;;
36725;SDS011;44936;52.086;5.150;2024-03-06T06:20:53;14.32;;;6.07;;
36725;SDS011;44936;52.086;5.150;2024-03-06T06:23:18;13.20;;;6.15;;
36725;SDS011;44936;52.086;5.150;2024-03-06T06:25:44;17.33;;;7.25;;
36725;SDS011;44936;52.086;5.150;2024-03-06T06:28:09;18.80;;;7.32;;
36725;SDS011;44936;52.086;5.150;2024-03-06T06:30:35;18.55;;;6.70;;
36725;SDS011;44936;52.086;5.150;2024-03-06T06:33:01;16.13;;;6.57;;
36725;SDS011;44936;52.086;5.150;2024-03-06T06:35:26;16.50;;;6.35;;
36725;SDS011;44936;52.086;5.150;2024-03-06T06:37:52;14.73;;;6.47;;
36725;SDS011;44936;52.086;5.150;2024-03-06T06:40:18;20.48;;;7.25;;
36725;SDS011;44936;52.086;5.150;2024-03-06T06:42:48;16.88;;;7.15;;
36725;SDS011;44936;52.086;5.150;2024-03-06T06:45:18;18.05;;;7.38;;
36725;SDS011;44936;52.086;5.150;2024-03-06T06:47:45;24.40;;;7.82;;
36725;SDS011;44936;52.086;5.150;2024-03-06T06:50:11;18.73;;;7.55;;
36725;SDS011;44936;52.086;5.150;2024-03-06T06:52:37;19.83;;;7.53;;
36725;SDS011;44936;52.086;5.150;2024-03-06T06:55:03;20.95;;;6.93;;
36725;SDS011;44936;52.086;5.150;2024-03-06T06:57:29;14.52;;;6.85;;
36725;SDS011;44936;52.086;5.150;2024-03-06T06:59:54;16.30;;;6.78;;
36725;SDS011;44936;52.086;5.150;2024-03-06T07:02:20;17.08;;;7.03;;
36725;SDS011;44936;52.086;5.150;2024-03-06T07:04:45;19.80;;;7.65;;
36725;SDS011;44936;52.086;5.150;2024-03-06T07:07:10;18.05;;;7.63;;
36725;SDS011;44936;52.086;5.150;2024-03-06T07:09:36;18.23;;;6.60;;
36725;SDS011;44936;52.086;5.150;2024-03-06T07:12:01;20.27;;;7.22;;
36725;SDS011;44936;52.086;5.150;2024-03-06T07:14:28;16.92;;;6.40;;
36725;SDS011;44936;52.086;5.150;2024-03-06T07:16:53;16.02;;;6.45;;
36725;SDS011;44936;52.086;5.150;2024-03-06T07:19:19;18.02;;;7.05;;
36725;SDS011;44936;52.086;5.150;2024-03-06T07:21:44;16.52;;;7.00;;
36725;SDS011;44936;52.086;5.150;2024-03-06T07:24:10;19.85;;;7.30;;
36725;SDS011;44936;52.086;5.150;2024-03-06T07:26:35;16.48;;;6.68;;
36725;SDS011;44936;52.086;5.150;2024-03-06T07:29:01;16.77;;;7.45;;
36725;SDS011;44936;52.086;5.150;2024-03-06T07:31:27;16.50;;;6.45;;
36725;SDS011;44936;52.086;5.150;2024-03-06T07:33:52;21.55;;;7.03;;
36725;SDS011;44936;52.086;5.150;2024-03-06T07:36:18;21.25;;;7.70;;
36725;SDS011;44936;52.086;5.150;2024-03-06T07:38:44;20.17;;;8.18;;
36725;SDS011;44936;52.086;5.150;2024-03-06T07:41:10;21.35;;;8.30;;
36725;SDS011;44936;52.086;5.150;2024-03-06T07:43:35;20.80;;;8.10;;
36725;SDS011;44936;52.086;5.150;2024-03-06T07:46:04;17.65;;;7.13;;
36725;SDS011;44936;52.086;5.150;2024-03-06T07:48:35;20.27;;;7.28;;
36725;SDS011;44936;52.086;5.150;2024-03-06T07:51:03;19.58;;;7.65;;
36725;SDS011;44936;52.086;5.150;2024-03-06T07:53:29;18.75;;;7.22;;
36725;SDS011;44936;52.086;5.150;2024-03-06T07:55:54;19.55;;;7.63;;
36725;SDS011;44936;52.086;5.150;2024-03-06T07:58:20;20.55;;;8.00;;
36725;SDS011;44936;52.086;5.150;2024-03-06T08:00:46;19.52;;;7.47;;
36725;SDS011;44936;52.086;5.150;2024-03-06T08:03:11;17.05;;;6.38;;
36725;SDS011;44936;52.086;5.150;2024-03-06T08:05:38;19.05;;;7.25;;
36725;SDS011;44936;52.086;5.150;2024-03-06T08:08:04;18.80;;;7.65;;
36725;SDS011;44936;52.086;5.150;2024-03-06T08:10:29;20.65;;;7.68;;
36725;SDS011;44936;52.086;5.150;2024-03-06T08:12:56;19.85;;;7.80;;
36725;SDS011;44936;52.086;5.150;2024-03-06T08:15:21;20.98;;;7.10;;
36725;SDS011;44936;52.086;5.150;2024-03-06T08:17:49;20.42;;;8.00;;
36725;SDS011;44936;52.086;5.150;2024-03-06T08:20:15;18.58;;;6.97;;
36725;SDS011;44936;52.086;5.150;2024-03-06T08:22:41;18.90;;;7.55;;
36725;SDS011;44936;52.086;5.150;2024-03-06T08:25:07;17.60;;;6.95;;
36725;SDS011;44936;52.086;5.150;2024-03-06T08:27:34;19.10;;;7.75;;
36725;SDS011;44936;52.086;5.150;2024-03-06T08:30:01;21.02;;;7.80;;
36725;SDS011;44936;52.086;5.150;2024-03-06T08:32:29;19.08;;;7.50;;
36725;SDS011;44936;52.086;5.150;2024-03-06T08:34:54;20.45;;;7.57;;
36725;SDS011;44936;52.086;5.150;2024-03-06T08:37:20;18.60;;;7.22;;
36725;SDS011;44936;52.086;5.150;2024-03-06T08:39:45;15.65;;;7.05;;
36725;SDS011;44936;52.086;5.150;2024-03-06T08:42:10;16.30;;;6.53;;
36725;SDS011;44936;52.086;5.150;2024-03-06T08:44:37;16.95;;;6.40;;
36725;SDS011;44936;52.086;5.150;2024-03-06T08:47:02;14.52;;;6.15;;
36725;SDS011;44936;52.086;5.150;2024-03-06T08:49:28;17.10;;;6.63;;
36725;SDS011;44936;52.086;5.150;2024-03-06T08:51:53;17.02;;;6.88;;
36725;SDS011;44936;52.086;5.150;2024-03-06T08:54:18;16.40;;;6.25;;
36725;SDS011;44936;52.086;5.150;2024-03-06T08:56:44;17.23;;;6.55;;
36725;SDS011;44936;52.086;5.150;2024-03-06T08:59:09;17.67;;;7.13;;
36725;SDS011;44936;52.086;5.150;2024-03-06T09:01:34;16.10;;;6.78;;
36725;SDS011;44936;52.086;5.150;2024-03-06T09:04:00;16.13;;;6.88;;
36725;SDS011;44936;52.086;5.150;2024-03-06T09:06:25;18.30;;;7.70;;
36725;SDS011;44936;52.086;5.150;2024-03-06T09:08:50;15.32;;;6.13;;
36725;SDS011;44936;52.086;5.150;2024-03-06T09:11:16;15.73;;;7.28;;
36725;SDS011;44936;52.086;5.150;2024-03-06T09:13:41;17.17;;;6.68;;
36725;SDS011;44936;52.086;5.150;2024-03-06T09:16:06;16.10;;;7.00;;
36725;SDS011;44936;52.086;5.150;2024-03-06T09:18:32;18.55;;;7.25;;
36725;SDS011;44936;52.086;5.150;2024-03-06T09:20:57;17.23;;;7.15;;
36725;SDS011;44936;52.086;5.150;2024-03-06T09:23:22;16.02;;;6.50;;
36725;SDS011;44936;52.086;5.150;2024-03-06T09:25:48;19.77;;;7.85;;
36725;SDS011;44936;52.086;5.150;2024-03-06T09:28:14;18.60;;;7.97;;
36725;SDS011;44936;52.086;5.150;2024-03-06T09:30:39;17.67;;;7.05;;
36725;SDS011;44936;52.086;5.150;2024-03-06T09:33:06;14.88;;;6.20;;
36725;SDS011;44936;52.086;5.150;2024-03-06T09:35:31;12.95;;;6.32;;
36725;SDS011;44936;52.086;5.150;2024-03-06T09:37:57;17.45;;;7.13;;
36725;SDS011;44936;52.086;5.150;2024-03-06T09:40:23;20.48;;;6.90;;
36725;SDS011;44936;52.086;5.150;2024-03-06T09:42:51;18.58;;;7.72;;
36725;SDS011;44936;52.086;5.150;2024-03-06T09:45:17;18.15;;;7.20;;
36725;SDS011;44936;52.086;5.150;2024-03-06T09:47:44;16.67;;;7.03;;
36725;SDS011;44936;52.086;5.150;2024-03-06T09:50:12;20.50;;;7.35;;
36725;SDS011;44936;52.086;5.150;2024-03-06T09:52:41;18.08;;;7.13;;
36725;SDS011;44936;52.086;5.150;2024-03-06T09:55:11;17.17;;;6.50;;
36725;SDS011;44936;52.086;5.150;2024-03-06T09:57:37;16.58;;;6.18;;
36725;SDS011;44936;52.086;5.150;2024-03-06T10:00:03;15.52;;;6.55;;
36725;SDS011;44936;52.086;5.150;2024-03-06T10:02:34;16.75;;;7.20;;
36725;SDS011;44936;52.086;5.150;2024-03-06T10:05:03;16.88;;;6.93;;
36725;SDS011;44936;52.086;5.150;2024-03-06T10:07:30;17.63;;;6.72;;
36725;SDS011;44936;52.086;5.150;2024-03-06T10:09:56;14.50;;;6.53;;
36725;SDS011;44936;52.086;5.150;2024-03-06T10:12:22;19.92;;;6.90;;
36725;SDS011;44936;52.086;5.150;2024-03-06T10:14:51;17.27;;;6.35;;
36725;SDS011;44936;52.086;5.150;2024-03-06T10:17:20;15.45;;;6.15;;
36725;SDS011;44936;52.086;5.150;2024-03-06T10:19:51;12.95;;;6.18;;
36725;SDS011;44936;52.086;5.150;2024-03-06T10:22:17;17.58;;;7.22;;
36725;SDS011;44936;52.086;5.150;2024-03-06T10:24:46;16.48;;;6.93;;
36725;SDS011;44936;52.086;5.150;2024-03-06T10:27:16;14.25;;;6.25;;
36725;SDS011;44936;52.086;5.150;2024-03-06T10:29:44;16.55;;;6.97;;
36725;SDS011;44936;52.086;5.150;2024-03-06T10:32:09;16.08;;;6.82;;
36725;SDS011;44936;52.086;5.150;2024-03-06T10:34:36;17.33;;;6.70;;
36725;SDS011;44936;52.086;5.150;2024-03-06T10:37:02;17.75;;;6.57;;
36725;SDS011;44936;52.086;5.150;2024-03-06T10:39:34;18.17;;;6.40;;
36725;SDS011;44936;52.086;5.150;2024-03-06T10:42:01;15.02;;;6.57;;
36725;SDS011;44936;52.086;5.150;2024-03-06T10:44:27;16.50;;;7.80;;
36725;SDS011;44936;52.086;5.150;2024-03-06T10:47:01;16.17;;;6.82;;
36725;SDS011;44936;52.086;5.150;2024-03-06T10:49:27;17.52;;;6.50;;
36725;SDS011;44936;52.086;5.150;2024-03-06T10:52:01;15.57;;;6.32;;
36725;SDS011;44936;52.086;5.150;2024-03-06T10:54:28;20.20;;;6.80;;
36725;SDS011;44936;52.086;5.150;2024-03-06T10:57:01;16.88;;;7.10;;
36725;SDS011;44936;52.086;5.150;2024-03-06T10:59:27;15.60;;;6.85;;
36725;SDS011;44936;52.086;5.150;2024-03-06T11:01:57;19.20;;;8.15;;
36725;SDS011;44936;52.086;5.150;2024-03-06T11:04:26;19.67;;;7.72;;
36725;SDS011;44936;52.086;5.150;2024-03-06T11:09:27;15.30;;;6.30;;
36725;SDS011;44936;52.086;5.150;2024-03-06T11:11:53;17.63;;;6.47;;
36725;SDS011;44936;52.086;5.150;2024-03-06T11:14:23;21.10;;;7.47;;
36725;SDS011;44936;52.086;5.150;2024-03-06T11:19:31;19.48;;;6.85;;
36725;SDS011;44936;52.086;5.150;2024-03-06T11:21:57;21.75;;;7.75;;
36725;SDS011;44936;52.086;5.150;2024-03-06T11:24:23;21.77;;;7.38;;
36725;SDS011;44936;52.086;5.150;2024-03-06T11:26:57;16.00;;;6.82;;
36725;SDS011;44936;52.086;5.150;2024-03-06T11:29:27;25.15;;;8.23;;
36725;SDS011;44936;52.086;5.150;2024-03-06T11:32:07;20.88;;;8.35;;
36725;SDS011;44936;52.086;5.150;2024-03-06T11:34:36;19.35;;;7.70;;
36725;SDS011;44936;52.086;5.150;2024-03-06T11:37:06;22.52;;;7.38;;
36725;SDS011;44936;52.086;5.150;2024-03-06T11:39:34;22.60;;;7.28;;
36725;SDS011;44936;52.086;5.150;2024-03-06T11:42:01;21.92;;;8.38;;
36725;SDS011;44936;52.086;5.150;2024-03-06T11:44:27;23.25;;;8.10;;
36725;SDS011;44936;52.086;5.150;2024-03-06T11:49:23;21.97;;;7.27;;
36725;SDS011;44936;52.086;5.150;2024-03-06T11:51:54;26.75;;;8.80;;
36725;SDS011;44936;52.086;5.150;2024-03-06T11:54:27;20.27;;;8.63;;
36725;SDS011;44936;52.086;5.150;2024-03-06T11:56:55;19.30;;;6.90;;
36725;SDS011;44936;52.086;5.150;2024-03-06T11:59:31;21.33;;;7.57;;
36725;SDS011;44936;52.086;5.150;2024-03-06T12:02:02;20.75;;;7.57;;
36725;SDS011;44936;52.086;5.150;2024-03-06T12:04:32;21.40;;;8.02;;
36725;SDS011;44936;52.086;5.150;2024-03-06T12:06:59;20.45;;;7.40;;
36725;SDS011;44936;52.086;5.150;2024-03-06T12:09:26;17.90;;;7.72;;
36725;SDS011;44936;52.086;5.150;2024-03-06T12:11:51;20.40;;;7.55;;
36725;SDS011;44936;52.086;5.150;2024-03-06T12:14:18;22.05;;;7.32;;
36725;SDS011;44936;52.086;5.150;2024-03-06T12:16:44;20.45;;;7.25;;
36725;SDS011;44936;52.086;5.150;2024-03-06T12:19:20;24.63;;;7.90;;
36725;SDS011;44936;52.086;5.150;2024-03-06T12:21:47;17.92;;;7.45;;
36725;SDS011;44936;52.086;5.150;2024-03-06T12:24:15;17.90;;;6.63;;
36725;SDS011;44936;52.086;5.150;2024-03-06T12:26:41;20.38;;;7.07;;
36725;SDS011;44936;52.086;5.150;2024-03-06T12:29:10;17.27;;;6.75;;
36725;SDS011;44936;52.086;5.150;2024-03-06T12:31:37;15.25;;;5.85;;
36725;SDS011;44936;52.086;5.150;2024-03-06T12:34:03;16.25;;;6.28;;
36725;SDS011;44936;52.086;5.150;2024-03-06T12:36:29;14.77;;;5.75;;
36725;SDS011;44936;52.086;5.150;2024-03-06T12:38:56;13.88;;;6.30;;
36725;SDS011;44936;52.086;5.150;2024-03-06T12:41:23;16.73;;;6.28;;
36725;SDS011;44936;52.086;5.150;2024-03-06T12:43:51;15.73;;;5.47;;
36725;SDS011;44936;52.086;5.150;2024-03-06T12:46:16;13.63;;;6.00;;
36725;SDS011;44936;52.086;5.150;2024-03-06T12:48:42;13.60;;;5.25;;
36725;SDS011;44936;52.086;5.150;2024-03-06T12:51:07;16.27;;;5.72;;
36725;SDS011;44936;52.086;5.150;2024-03-06T12:53:32;15.48;;;6.03;;
36725;SDS011;44936;52.086;5.150;2024-03-06T12:55:59;15.73;;;5.28;;
36725;SDS011;44936;52.086;5.150;2024-03-06T12:58:25;14.45;;;5.55;;
36725;SDS011;44936;52.086;5.150;2024-03-06T13:00:50;12.50;;;5.03;;
36725;SDS011;44936;52.086;5.150;2024-03-06T13:03:17;14.43;;;5.68;;
36725;SDS011;44936;52.086;5.150;2024-03-06T13:05:42;13.98;;;6.13;;
36725;SDS011;44936;52.086;5.150;2024-03-06T13:08:07;12.90;;;5.00;;
36725;SDS011;44936;52.086;5.150;2024-03-06T13:10:33;15.23;;;4.72;;
36725;SDS011;44936;52.086;5.150;2024-03-06T13:12:58;12.23;;;5.25;;
36725;SDS011;44936;52.086;5.150;2024-03-06T13:15:23;12.02;;;4.35;;
36725;SDS011;44936;52.086;5.150;2024-03-06T13:17:49;8.32;;;3.50;;
36725;SDS011;44936;52.086;5.150;2024-03-06T13:20:14;12.80;;;4.50;;
36725;SDS011;44936;52.086;5.150;2024-03-06T13:22:39;8.90;;;3.75;;
36725;SDS011;44936;52.086;5.150;2024-03-06T13:25:05;10.38;;;3.50;;
36725;SDS011;44936;52.086;5.150;2024-03-06T13:27:31;7.82;;;3.38;;
36725;SDS011;44936;52.086;5.150;2024-03-06T13:29:56;8.40;;;3.20;;
36725;SDS011;44936;52.086;5.150;2024-03-06T13:32:22;9.18;;;3.13;;
36725;SDS011;44936;52.086;5.150;2024-03-06T13:34:47;10.85;;;3.88;;
36725;SDS011;44936;52.086;5.150;2024-03-06T13:37:13;6.10;;;2.80;;
36725;SDS011;44936;52.086;5.150;2024-03-06T13:39:39;9.10;;;3.03;;
36725;SDS011;44936;52.086;5.150;2024-03-06T13:42:04;5.55;;;2.50;;
36725;SDS011;44936;52.086;5.150;2024-03-06T13:44:31;8.10;;;2.60;;
36725;SDS011;44936;52.086;5.150;2024-03-06T13:46:56;6.07;;;2.60;;
36725;SDS011;44936;52.086;5.150;2024-03-06T13:49:38;11.43;;;2.42;;
36725;SDS011;44936;52.086;5.150;2024-03-06T13:52:05;6.82;;;2.50;;
36725;SDS011;44936;52.086;5.150;2024-03-06T13:54:31;6.43;;;2.20;;
36725;SDS011;44936;52.086;5.150;2024-03-06T13:56:58;5.57;;;2.28;;
36725;SDS011;44936;52.086;5.150;2024-03-06T13:59:35;7.25;;;2.50;;
36725;SDS011;44936;52.086;5.150;2024-03-06T14:02:02;7.43;;;2.80;;
36725;SDS011;44936;52.086;5.150;2024-03-06T14:04:28;9.30;;;3.53;;
36725;SDS011;44936;52.086;5.150;2024-03-06T14:06:54;7.32;;;2.72;;
36725;SDS011;44936;52.086;5.150;2024-03-06T14:09:19;6.10;;;2.33;;
36725;SDS011;44936;52.086;5.150;2024-03-06T14:11:44;8.15;;;2.95;;
36725;SDS011;44936;52.086;5.150;2024-03-06T14:14:10;6.70;;;2.85;;
36725;SDS011;44936;52.086;5.150;2024-03-06T14:16:39;6.38;;;2.75;;
36725;SDS011;44936;52.086;5.150;2024-03-06T14:19:05;5.97;;;2.22;;
36725;SDS011;44936;52.086;5.150;2024-03-06T14:21:31;9.07;;;2.83;;
36725;SDS011;44936;52.086;5.150;2024-03-06T14:23:59;7.50;;;2.53;;
36725;SDS011;44936;52.086;5.150;2024-03-06T14:26:28;9.32;;;2.95;;
36725;SDS011;44936;52.086;5.150;2024-03-06T14:28:54;10.63;;;3.47;;
36725;SDS011;44936;52.086;5.150;2024-03-06T14:31:19;5.65;;;2.50;;
36725;SDS011;44936;52.086;5.150;2024-03-06T14:33:44;2.97;;;1.88;;
36725;SDS011;44936;52.086;5.150;2024-03-06T14:36:11;3.65;;;1.75;;
36725;SDS011;44936;52.086;5.150;2024-03-06T14:38:37;2.83;;;1.35;;